Time;durP1;ratioP1;P1;durP2;ratioP2;P2;SDS_P1;SDS_P2;PMS_P1;PMS_P2;Temp;Humidity;BMP_temperature;BMP_pressure;BME280_temperature;BME280_humidity;BME280_pressure;Samples;Min_cycle;Max_cycle;Signal;HPM_P1;HPM_P2
2022/04/13 00:00:07;;;;;;;;;;;;;;;;;;347160;28;1118;-70
2022/04/13 00:00:17;;;;;;;;;;;;;;;;;;347031;28;945;-70
2022/04/13 00:00:28;;;;;;;;;;;;;;;;;;347108;28;1029;-70
2022/04/13 00:00:38;;;;;;;;;;;;;;;;;;347176;28;988;-71
2022/04/13 00:00:49;;;;;;;;;;;;;;;;;;347166;28;954;-71
2022/04/13 00:00:59;;;;;;;;;;;;;;;;;;346541;28;1804;-71
2022/04/13 00:01:09;;;;;;;;;;;;;;;;;;347120;28;1041;-70
2022/04/13 00:01:19;;;;;;;;;;;;;;;;;;347139;28;905;-70
2022/04/13 00:01:30;;;;;;;;;;;;;;;;;;347171;28;893;-71
2022/04/13 00:01:40;;;;;;;;;;;;;;;;;;347202;28;917;-71
2022/04/13 00:01:50;;;;;;;;;;;;;;;;;;347178;28;882;-70
2022/04/13 00:02:00;;;;;;;;;;;;;;;;;;347151;28;984;-71
2022/04/13 00:02:11;;;;;;;;;;;;;;;;;;347191;28;762;-71
2022/04/13 00:02:22;;;;;;;;;;;;;;;;;;347183;28;933;-70
2022/04/13 00:02:32;;;;;;;;;;;;;;;;;;347171;28;803;-71
2022/04/13 00:02:42;;;;;;;;;;;;;;;;;;347204;28;926;-70
2022/04/13 00:02:53;;;;;;;;;;;;;;;;;;346969;28;1347;-70
2022/04/13 00:03:03;;;;;;;;;;;;;;;;;;347218;28;846;-70
2022/04/13 00:03:13;;;;;;;;;;;;;;;;;;347191;28;1705;-70
2022/04/13 00:03:24;;;;;;;;;;;;;;;;;;347119;28;976;-71
2022/04/13 00:03:34;;;;;;;;;;;;;;;;;;347185;28;1013;-70
2022/04/13 00:03:46;;;;;;;;;;;;;;;;;;347152;28;976;-71
2022/04/13 00:03:56;;;;;;;;;;;;;;;;;;347068;28;929;-71
2022/04/13 00:04:07;;;;;;;;;;;;;;;;;;347195;28;767;-70
2022/04/13 00:04:18;;;;;;;;;;;;;;;;;;347210;28;835;-71
2022/04/13 00:04:28;;;;;;;;;;;;;;;;;;347129;28;937;-71
2022/04/13 00:04:38;;;;;;;;;;;;;;;;;;347141;28;988;-70
2022/04/13 00:04:48;;;;;;;;;;;;;;;;;;347202;28;794;-70
2022/04/13 00:04:59;;;;;;;;;;;;;;;;;;346929;28;1864;-70
2022/04/13 00:05:09;;;;;;;;;;;;;;;;;;346038;28;1511;-70
2022/04/13 00:05:20;;;;;;;;;;;;;;;;;;345779;28;787;-71
2022/04/13 00:05:30;;;;;;;;;;;;;;;;;;346033;28;1464;-70
2022/04/13 00:05:40;;;;;;;;;;;;;;;;;;347193;28;945;-71
2022/04/13 00:05:50;;;;;;;;;;;;;;;;;;347178;28;968;-70
2022/04/13 00:06:00;;;;;;;;;;;;;;;;;;347188;28;979;-71
2022/04/13 00:06:11;;;;;;;;;;;;;;;;;;347127;28;961;-71
2022/04/13 00:06:21;;;;;;;;;;;;;;;;;;347238;28;866;-70
2022/04/13 00:06:31;;;;;;;;;;;;;;;;;;347184;28;875;-70
2022/04/13 00:06:41;;;;;;;;;;;;;;;;;;347118;28;965;-71
2022/04/13 00:06:52;;;;;;;;;;;;;;;;;;347149;28;975;-71
2022/04/13 00:07:02;;;;;;;;;;;;;;;;;;347147;28;1043;-70
2022/04/13 00:07:13;;;;;;;;;;;;;;;;;;347145;28;921;-70
2022/04/13 00:07:23;;;;;;;;;;;;;;;;;;346798;28;1460;-70
2022/04/13 00:07:34;;;;;;;;;;;;;;;;;;346760;28;1469;-71
2022/04/13 00:07:44;;;;;;;;;;;;;;;;;;345820;28;925;-70
2022/04/13 00:07:55;;;;;;;;;;;;;;;;;;345856;28;736;-70
2022/04/13 00:08:08;;;;;;;;;;;;;;;;;;345850;28;819;-71
2022/04/13 00:08:18;;;;;;;;;;;;;;;;;;345766;28;1013;-71
2022/04/13 00:08:28;;;;;;;;;;;;;;;;;;345814;28;914;-71
2022/04/13 00:08:40;;;;;;;;;;;;;;;;;;345673;28;949;-71
2022/04/13 00:08:50;;;;;;;;;;;;;;;;;;345775;28;850;-71
2022/04/13 00:09:00;;;;;;;;;;;;;;;;;;345805;28;862;-71
2022/04/13 00:09:11;;;;;;;;;;;;;;;;;;345822;28;809;-71
2022/04/13 00:09:21;;;;;;;;;;;;;;;;;;346887;28;1293;-71
2022/04/13 00:09:31;;;;;;;;;;;;;;;;;;347110;28;1047;-71
2022/04/13 00:09:41;;;;;;;;;;;;;;;;;;347078;28;834;-70
2022/04/13 00:09:52;;;;;;;;;;;;;;;;;;347064;28;949;-71
2022/04/13 00:10:03;;;;;;;;;;;;;;;;;;347170;28;992;-71
2022/04/13 00:10:13;;;;;;;;;;;;;;;;;;347144;28;921;-71
2022/04/13 00:10:23;;;;;;;;;;;;;;;;;;347195;28;854;-71
2022/04/13 00:10:34;;;;;;;;;;;;;;;;;;347197;28;885;-70
2022/04/13 00:10:44;;;;;;;;;;;;;;;;;;346123;28;917;-71
2022/04/13 00:10:55;;;;;;;;;;;;;;;;;;346051;28;984;-70
2022/04/13 00:11:05;;;;;;;;;;;;;;;;;;346042;28;1848;-71
2022/04/13 00:11:17;;;;;;;;;;;;;;;;;;345901;28;1449;-70
2022/04/13 00:11:28;;;;;;;;;;;;;;;;;;345984;28;907;-71
2022/04/13 00:11:38;;;;;;;;;;;;;;;;;;346557;28;909;-71
2022/04/13 00:11:48;;;;;;;;;;;;;;;;;;347350;28;920;-71
2022/04/13 00:11:59;;;;;;;;;;;;;;;;;;347411;28;1084;-70
2022/04/13 00:12:10;;;;;;;;;;;;;;;;;;347473;28;948;-70
2022/04/13 00:12:20;;;;;;;;;;;;;;;;;;347431;28;929;-71
2022/04/13 00:12:30;;;;;;;;;;;;;;;;;;347430;28;893;-70
2022/04/13 00:12:41;;;;;;;;;;;;;;;;;;347487;28;916;-70
2022/04/13 00:12:51;;;;;;;;;;;;;;;;;;347469;28;814;-70
2022/04/13 00:13:02;;;;;;;;;;;;;;;;;;347373;28;1063;-71
2022/04/13 00:13:13;;;;;;;;;;;;;;;;;;347455;28;965;-71
2022/04/13 00:13:24;;;;;;;;;;;;;;;;;;347455;28;1075;-71
2022/04/13 00:13:34;;;;;;;;;;;;;;;;;;347441;28;891;-70
2022/04/13 00:13:44;;;;;;;;;;;;;;;;;;347224;28;994;-71
2022/04/13 00:13:54;;;;;;;;;;;;;;;;;;347510;28;889;-71
2022/04/13 00:14:05;;;;;;;;;;;;;;;;;;347466;28;937;-71
2022/04/13 00:14:15;;;;;;;;;;;;;;;;;;347463;28;850;-70
2022/04/13 00:14:25;;;;;;;;;;;;;;;;;;347499;28;775;-70
2022/04/13 00:14:35;;;;;;;;;;;;;;;;;;347413;28;918;-71
2022/04/13 00:14:47;;;;;;;;;;;;;;;;;;347434;28;1055;-70
2022/04/13 00:14:57;;;;;;;;;;;;;;;;;;347473;28;929;-71
2022/04/13 00:15:08;;;;;;;;;;;;;;;;;;347404;28;988;-71
2022/04/13 00:15:18;;;;;;;;;;;;;;;;;;347466;28;917;-71
2022/04/13 00:15:28;;;;;;;;;;;;;;;;;;347433;28;1048;-70
2022/04/13 00:15:38;;;;;;;;;;;;;;;;;;347388;28;871;-71
2022/04/13 00:15:48;;;;;;;;;;;;;;;;;;347362;28;921;-71
2022/04/13 00:15:59;;;;;;;;;;;;;;;;;;347472;28;917;-70
2022/04/13 00:16:09;;;;;;;;;;;;;;;;;;347469;28;795;-71
2022/04/13 00:16:19;;;;;;;;;;;;;;;;;;347401;28;960;-71
2022/04/13 00:16:29;;;;;;;;;;;;;;;;;;347488;28;826;-70
2022/04/13 00:16:42;;;;;;;;;;;;;;;;;;347456;28;918;-70
2022/04/13 00:16:54;;;;;;;;;;;;;;;;;;347442;28;1012;-71
2022/04/13 00:17:04;;;;;;;;;;;;;;;;;;347468;28;920;-70
2022/04/13 00:17:14;;;;;;;;;;;;;;;;;;347391;28;992;-71
2022/04/13 00:17:25;;;;;;;;;;;;;;;;;;347491;28;968;-71
2022/04/13 00:17:35;;;;;;;;;;;;;;;;;;347423;28;1029;-71
2022/04/13 00:17:46;;;;;;;;;;;;;;;;;;347378;28;956;-70
2022/04/13 00:17:56;;;;;;;;;;;;;;;;;;347376;28;957;-70
2022/04/13 00:18:07;;;;;;;;;;;;;;;;;;347441;28;949;-71
2022/04/13 00:18:17;;;;;;;;;;;;;;;;;;347440;28;925;-71
2022/04/13 00:18:27;;;;;;;;;;;;;;;;;;347273;28;1158;-71
2022/04/13 00:18:38;;;;;;;;;;;;;;;;;;347449;28;992;-71
2022/04/13 00:18:49;;;;;;;;;;;;;;;;;;347414;28;865;-70
2022/04/13 00:18:59;;;;;;;;;;;;;;;;;;347472;28;894;-70
2022/04/13 00:19:09;;;;;;;;;;;;;;;;;;347370;28;973;-71
2022/04/13 00:19:21;;;;;;;;;;;;;;;;;;346541;28;1365;-70
2022/04/13 00:19:31;;;;;;;;;;;;;;;;;;347160;28;1973;-70
2022/04/13 00:19:41;;;;;;;;;;;;;;;;;;347471;28;929;-70
2022/04/13 00:19:52;;;;;;;;;;;;;;;;;;347411;28;849;-70
2022/04/13 00:20:03;;;;;;;;;;;;;;;;;;347436;28;909;-70
2022/04/13 00:20:13;;;;;;;;;;;;;;;;;;347473;28;924;-71
2022/04/13 00:20:23;;;;;;;;;;;;;;;;;;347458;28;917;-70
2022/04/13 00:20:34;;;;;;;;;;;;;;;;;;347393;28;1019;-70
2022/04/13 00:20:45;;;;;;;;;;;;;;;;;;347466;28;759;-71
2022/04/13 00:20:55;;;;;;;;;;;;;;;;;;347444;28;925;-71
2022/04/13 00:21:05;;;;;;;;;;;;;;;;;;347468;28;881;-71
2022/04/13 00:21:16;;;;;;;;;;;;;;;;;;347188;28;1068;-70
2022/04/13 00:21:26;;;;;;;;;;;;;;;;;;346707;28;1274;-70
2022/04/13 00:21:36;;;;;;;;;;;;;;;;;;346478;28;1291;-70
2022/04/13 00:21:46;;;;;;;;;;;;;;;;;;347409;28;987;-71
2022/04/13 00:21:56;;;;;;;;;;;;;;;;;;347380;28;984;-71
2022/04/13 00:22:07;;;;;;;;;;;;;;;;;;347437;28;917;-70
2022/04/13 00:22:17;;;;;;;;;;;;;;;;;;347431;28;937;-70
2022/04/13 00:22:27;;;;;;;;;;;;;;;;;;347435;28;1231;-70
2022/04/13 00:22:38;;;;;;;;;;;;;;;;;;347444;28;882;-70
2022/04/13 00:22:48;;;;;;;;;;;;;;;;;;347403;28;952;-71
2022/04/13 00:22:58;;;;;;;;;;;;;;;;;;347413;28;928;-71
2022/04/13 00:23:08;;;;;;;;;;;;;;;;;;347441;28;821;-70
2022/04/13 00:23:18;;;;;;;;;;;;;;;;;;347428;28;866;-71
2022/04/13 00:23:29;;;;;;;;;;;;;;;;;;346772;28;1321;-71
2022/04/13 00:23:39;;;;;;;;;;;;;;;;;;347436;28;1013;-70
2022/04/13 00:23:49;;;;;;;;;;;;;;;;;;347414;28;932;-71
2022/04/13 00:23:59;;;;;;;;;;;;;;;;;;347230;28;1047;-70
2022/04/13 00:24:12;;;;;;;;;;;;;;;;;;347442;28;956;-71
2022/04/13 00:24:22;;;;;;;;;;;;;;;;;;347465;28;940;-70
2022/04/13 00:24:32;;;;;;;;;;;;;;;;;;347439;28;921;-71
2022/04/13 00:24:43;;;;;;;;;;;;;;;;;;347443;28;865;-70
2022/04/13 00:24:53;;;;;;;;;;;;;;;;;;347372;28;1085;-70
2022/04/13 00:25:03;;;;;;;;;;;;;;;;;;347444;28;969;-71
2022/04/13 00:25:14;;;;;;;;;;;;;;;;;;347397;28;1028;-70
2022/04/13 00:25:24;;;;;;;;;;;;;;;;;;346949;28;1406;-71
2022/04/13 00:25:38;;;;;;;;;;;;;;;;;;347179;28;1290;-70
2022/04/13 00:25:48;;;;;;;;;;;;;;;;;;347478;28;957;-71
2022/04/13 00:25:59;;;;;;;;;;;;;;;;;;346451;28;1622;-70
2022/04/13 00:26:09;;;;;;;;;;;;;;;;;;346084;28;972;-71
2022/04/13 00:26:19;;;;;;;;;;;;;;;;;;346062;28;830;-70
2022/04/13 00:26:29;;;;;;;;;;;;;;;;;;346056;28;1046;-71
2022/04/13 00:26:39;;;;;;;;;;;;;;;;;;346075;28;941;-71
2022/04/13 00:26:50;;;;;;;;;;;;;;;;;;346042;28;921;-70
2022/04/13 00:27:00;;;;;;;;;;;;;;;;;;346038;28;834;-71
2022/04/13 00:27:10;;;;;;;;;;;;;;;;;;346063;28;977;-70
2022/04/13 00:27:21;;;;;;;;;;;;;;;;;;346095;28;933;-70
2022/04/13 00:27:31;;;;;;;;;;;;;;;;;;346663;28;1357;-70
2022/04/13 00:27:41;;;;;;;;;;;;;;;;;;347420;28;972;-71
2022/04/13 00:27:51;;;;;;;;;;;;;;;;;;347468;28;853;-71
2022/04/13 00:28:02;;;;;;;;;;;;;;;;;;346597;28;1277;-70
2022/04/13 00:28:12;;;;;;;;;;;;;;;;;;347450;28;979;-70
2022/04/13 00:28:22;;;;;;;;;;;;;;;;;;347441;28;766;-70
2022/04/13 00:28:33;;;;;;;;;;;;;;;;;;347386;28;925;-70
2022/04/13 00:28:43;;;;;;;;;;;;;;;;;;345892;28;1354;-70
2022/04/13 00:28:53;;;;;;;;;;;;;;;;;;345965;28;913;-70
2022/04/13 00:29:03;;;;;;;;;;;;;;;;;;346001;28;897;-71
2022/04/13 00:29:14;;;;;;;;;;;;;;;;;;345997;28;779;-71
2022/04/13 00:29:25;;;;;;;;;;;;;;;;;;345885;28;1066;-71
2022/04/13 00:29:35;;;;;;;;;;;;;;;;;;344793;28;1505;-70
2022/04/13 00:29:45;;;;;;;;;;;;;;;;;;346025;28;846;-71
2022/04/13 00:29:55;;;;;;;;;;;;;;;;;;345963;28;902;-70
2022/04/13 00:30:06;;;;;;;;;;;;;;;;;;345973;28;948;-70
2022/04/13 00:30:16;;;;;;;;;;;;;;;;;;345988;28;846;-70
2022/04/13 00:30:27;;;;;;;;;;;;;;;;;;345945;28;818;-70
2022/04/13 00:30:37;;;;;;;;;;;;;;;;;;346184;28;1065;-70
2022/04/13 00:30:47;;;;;;;;;;;;;;;;;;347440;28;1109;-70
2022/04/13 00:30:58;;;;;;;;;;;;;;;;;;347432;28;921;-70
2022/04/13 00:31:08;;;;;;;;;;;;;;;;;;347411;28;909;-70
2022/04/13 00:31:18;;;;;;;;;;;;;;;;;;347455;28;972;-70
2022/04/13 00:31:28;;;;;;;;;;;;;;;;;;347369;28;811;-71
2022/04/13 00:31:39;;;;;;;;;;;;;;;;;;347434;28;996;-71
2022/04/13 00:31:51;;;;;;;;;;;;;;;;;;347468;28;1007;-70
2022/04/13 00:32:03;;;;;;;;;;;;;;;;;;347478;28;936;-70
2022/04/13 00:32:14;;;;;;;;;;;;;;;;;;347457;28;825;-70
2022/04/13 00:32:25;;;;;;;;;;;;;;;;;;347379;28;987;-71
2022/04/13 00:32:35;;;;;;;;;;;;;;;;;;347401;28;893;-71
2022/04/13 00:32:46;;;;;;;;;;;;;;;;;;347429;28;815;-70
2022/04/13 00:32:56;;;;;;;;;;;;;;;;;;347416;28;1737;-70
2022/04/13 00:33:08;;;;;;;;;;;;;;;;;;346010;28;1554;-70
2022/04/13 00:33:18;;;;;;;;;;;;;;;;;;345969;28;981;-70
2022/04/13 00:33:29;;;;;;;;;;;;;;;;;;346061;28;846;-70
2022/04/13 00:33:39;;;;;;;;;;;;;;;;;;346089;28;908;-70
2022/04/13 00:33:49;;;;;;;;;;;;;;;;;;346070;28;1032;-70
2022/04/13 00:33:59;;;;;;;;;;;;;;;;;;346053;28;936;-70
2022/04/13 00:34:10;;;;;;;;;;;;;;;;;;345869;28;1314;-70
2022/04/13 00:34:20;;;;;;;;;;;;;;;;;;346436;28;1471;-70
2022/04/13 00:34:30;;;;;;;;;;;;;;;;;;347171;28;1512;-70
2022/04/13 00:34:41;;;;;;;;;;;;;;;;;;347373;28;889;-70
2022/04/13 00:34:51;;;;;;;;;;;;;;;;;;347354;28;1519;-70
2022/04/13 00:35:04;;;;;;;;;;;;;;;;;;347396;28;875;-70
2022/04/13 00:35:15;;;;;;;;;;;;;;;;;;346898;28;1396;-70
2022/04/13 00:35:25;;;;;;;;;;;;;;;;;;347066;28;1448;-70
2022/04/13 00:35:37;;;;;;;;;;;;;;;;;;347322;28;1543;-70
2022/04/13 00:35:47;;;;;;;;;;;;;;;;;;347422;28;924;-70
2022/04/13 00:35:58;;;;;;;;;;;;;;;;;;347361;28;993;-70
2022/04/13 00:36:08;;;;;;;;;;;;;;;;;;347413;28;841;-70
2022/04/13 00:36:18;;;;;;;;;;;;;;;;;;347411;28;1000;-70
2022/04/13 00:36:28;;;;;;;;;;;;;;;;;;347447;28;944;-70
2022/04/13 00:36:38;;;;;;;;;;;;;;;;;;347302;28;981;-70
2022/04/13 00:36:49;;;;;;;;;;;;;;;;;;347413;28;881;-70
2022/04/13 00:36:59;;;;;;;;;;;;;;;;;;347391;28;1036;-70
2022/04/13 00:37:09;;;;;;;;;;;;;;;;;;347423;28;944;-70
2022/04/13 00:37:20;;;;;;;;;;;;;;;;;;346691;28;1424;-70
2022/04/13 00:37:30;;;;;;;;;;;;;;;;;;347430;28;948;-70
2022/04/13 00:37:41;;;;;;;;;;;;;;;;;;345889;28;1402;-70
2022/04/13 00:37:51;;;;;;;;;;;;;;;;;;345993;28;920;-70
2022/04/13 00:38:01;;;;;;;;;;;;;;;;;;345949;28;908;-70
2022/04/13 00:38:11;;;;;;;;;;;;;;;;;;346083;28;901;-70
2022/04/13 00:38:22;;;;;;;;;;;;;;;;;;345990;28;836;-70
2022/04/13 00:38:32;;;;;;;;;;;;;;;;;;344865;28;1658;-70
2022/04/13 00:38:42;;;;;;;;;;;;;;;;;;344573;28;897;-70
2022/04/13 00:38:53;;;;;;;;;;;;;;;;;;344591;28;928;-70
2022/04/13 00:39:03;;;;;;;;;;;;;;;;;;344617;28;901;-70
2022/04/13 00:39:13;;;;;;;;;;;;;;;;;;344394;28;1306;-70
2022/04/13 00:39:24;;;;;;;;;;;;;;;;;;345862;28;999;-70
2022/04/13 00:39:34;;;;;;;;;;;;;;;;;;346267;28;1973;-70
2022/04/13 00:39:44;;;;;;;;;;;;;;;;;;347458;28;936;-70
2022/04/13 00:39:54;;;;;;;;;;;;;;;;;;347420;28;972;-70
2022/04/13 00:40:06;;;;;;;;;;;;;;;;;;347378;28;782;-70
2022/04/13 00:40:16;;;;;;;;;;;;;;;;;;347321;28;1174;-70
2022/04/13 00:40:26;;;;;;;;;;;;;;;;;;347436;28;790;-70
2022/04/13 00:40:39;;;;;;;;;;;;;;;;;;347457;28;1051;-70
2022/04/13 00:40:49;;;;;;;;;;;;;;;;;;347351;28;804;-70
2022/04/13 00:40:59;;;;;;;;;;;;;;;;;;347426;28;873;-70
2022/04/13 00:41:09;;;;;;;;;;;;;;;;;;347442;28;916;-70
2022/04/13 00:41:21;;;;;;;;;;;;;;;;;;347395;28;932;-70
2022/04/13 00:41:31;;;;;;;;;;;;;;;;;;347379;28;999;-70
2022/04/13 00:41:41;;;;;;;;;;;;;;;;;;347444;28;786;-70
2022/04/13 00:41:59;;;;;;;;;;;;;;;;;;347461;28;808;-70
2022/04/13 00:42:09;;;;;;;;;;;;;;;;;;347416;28;928;-70
2022/04/13 00:42:20;;;;;;;;;;;;;;;;;;347369;28;936;-70
2022/04/13 00:42:30;;;;;;;;;;;;;;;;;;347472;28;778;-70
2022/04/13 00:42:40;;;;;;;;;;;;;;;;;;347432;28;850;-70
2022/04/13 00:42:50;;;;;;;;;;;;;;;;;;347440;28;972;-70
2022/04/13 00:43:01;;;;;;;;;;;;;;;;;;347417;28;821;-70
2022/04/13 00:43:11;;;;;;;;;;;;;;;;;;347390;28;877;-70
2022/04/13 00:43:21;;;;;;;;;;;;;;;;;;346841;28;1514;-70
2022/04/13 00:43:32;;;;;;;;;;;;;;;;;;347462;28;983;-70
2022/04/13 00:43:42;;;;;;;;;;;;;;;;;;347405;28;957;-70
2022/04/13 00:44:06;;;;;;;;;;;;;;;;;;347441;28;826;-70
2022/04/13 00:44:16;;;;;;;;;;;;;;;;;;347320;28;780;-70
2022/04/13 00:44:29;;;;;;;;;;;;;;;;;;347387;28;932;-70
2022/04/13 00:44:39;;;;;;;;;;;;;;;;;;347396;28;984;-70
2022/04/13 00:44:50;;;;;;;;;;;;;;;;;;347447;28;845;-70
2022/04/13 00:45:00;;;;;;;;;;;;;;;;;;347339;28;982;-70
2022/04/13 00:45:10;;;;;;;;;;;;;;;;;;347402;28;983;-70
2022/04/13 00:45:20;;;;;;;;;;;;;;;;;;346914;28;1306;-70
2022/04/13 00:45:31;;;;;;;;;;;;;;;;;;346824;28;1341;-70
2022/04/13 00:45:48;;;;;;;;;;;;;;;;;;347398;28;964;-70
2022/04/13 00:45:58;;;;;;;;;;;;;;;;;;347354;28;980;-70
2022/04/13 00:46:08;;;;;;;;;;;;;;;;;;347515;28;921;-70
2022/04/13 00:46:18;;;;;;;;;;;;;;;;;;347424;28;925;-70
2022/04/13 00:46:29;;;;;;;;;;;;;;;;;;347380;28;973;-70
2022/04/13 00:46:39;;;;;;;;;;;;;;;;;;347412;28;936;-70
2022/04/13 00:46:49;;;;;;;;;;;;;;;;;;347364;28;980;-70
2022/04/13 00:47:03;;;;;;;;;;;;;;;;;;347437;28;833;-70
2022/04/13 00:47:14;;;;;;;;;;;;;;;;;;347398;28;933;-70
2022/04/13 00:47:24;;;;;;;;;;;;;;;;;;346752;28;1309;-70
2022/04/13 00:47:38;;;;;;;;;;;;;;;;;;347169;28;1036;-70
2022/04/13 00:47:48;;;;;;;;;;;;;;;;;;347258;28;1039;-70
2022/04/13 00:47:59;;;;;;;;;;;;;;;;;;347408;28;1020;-71
2022/04/13 00:48:09;;;;;;;;;;;;;;;;;;347390;28;968;-70
2022/04/13 00:48:34;;;;;;;;;;;;;;;;;;347445;28;905;-70
2022/04/13 00:48:45;;;;;;;;;;;;;;;;;;347389;28;818;-70
2022/04/13 00:48:56;;;;;;;;;;;;;;;;;;347420;28;850;-70
2022/04/13 00:49:07;;;;;;;;;;;;;;;;;;347394;28;1158;-70
2022/04/13 00:49:17;;;;;;;;;;;;;;;;;;347379;28;1003;-70
2022/04/13 00:49:27;;;;;;;;;;;;;;;;;;346637;28;1357;-70
2022/04/13 00:49:38;;;;;;;;;;;;;;;;;;346824;28;909;-70
2022/04/13 00:49:48;;;;;;;;;;;;;;;;;;347397;28;984;-70
2022/04/13 00:49:58;;;;;;;;;;;;;;;;;;347453;28;766;-70
2022/04/13 00:50:09;;;;;;;;;;;;;;;;;;347439;28;889;-70
2022/04/13 00:50:20;;;;;;;;;;;;;;;;;;347383;28;1119;-70
2022/04/13 00:50:30;;;;;;;;;;;;;;;;;;347338;28;833;-70
2022/04/13 00:50:41;;;;;;;;;;;;;;;;;;347427;28;782;-70
2022/04/13 00:50:51;;;;;;;;;;;;;;;;;;347452;28;790;-70
2022/04/13 00:51:01;;;;;;;;;;;;;;;;;;347431;28;988;-70
2022/04/13 00:51:12;;;;;;;;;;;;;;;;;;347447;28;980;-70
2022/04/13 00:51:22;;;;;;;;;;;;;;;;;;347296;28;983;-70
2022/04/13 00:51:32;;;;;;;;;;;;;;;;;;347401;28;992;-70
2022/04/13 00:51:42;;;;;;;;;;;;;;;;;;347435;28;857;-70
2022/04/13 00:51:53;;;;;;;;;;;;;;;;;;347435;28;960;-70
2022/04/13 00:52:04;;;;;;;;;;;;;;;;;;347314;28;1060;-70
2022/04/13 00:52:15;;;;;;;;;;;;;;;;;;347359;28;949;-70
2022/04/13 00:52:26;;;;;;;;;;;;;;;;;;347421;28;964;-70
2022/04/13 00:52:38;;;;;;;;;;;;;;;;;;347378;28;980;-70
2022/04/13 00:52:49;;;;;;;;;;;;;;;;;;347426;28;930;-70
2022/04/13 00:53:00;;;;;;;;;;;;;;;;;;347406;28;976;-70
2022/04/13 00:53:10;;;;;;;;;;;;;;;;;;347097;28;1670;-70
2022/04/13 00:53:22;;;;;;;;;;;;;;;;;;345987;28;940;-70
2022/04/13 00:53:34;;;;;;;;;;;;;;;;;;346011;28;995;-70
2022/04/13 00:53:45;;;;;;;;;;;;;;;;;;346054;28;909;-70
2022/04/13 00:53:56;;;;;;;;;;;;;;;;;;346016;28;764;-70
2022/04/13 00:54:08;;;;;;;;;;;;;;;;;;346005;28;933;-70
2022/04/13 00:54:18;;;;;;;;;;;;;;;;;;346371;28;1420;-70
2022/04/13 00:54:29;;;;;;;;;;;;;;;;;;347406;28;853;-70
2022/04/13 00:54:41;;;;;;;;;;;;;;;;;;347409;28;898;-70
2022/04/13 00:54:53;;;;;;;;;;;;;;;;;;347461;28;811;-70
2022/04/13 00:55:06;;;;;;;;;;;;;;;;;;347342;28;767;-70
2022/04/13 00:55:17;;;;;;;;;;;;;;;;;;347404;28;838;-70
2022/04/13 00:55:28;;;;;;;;;;;;;;;;;;347380;28;830;-70
2022/04/13 00:55:40;;;;;;;;;;;;;;;;;;347355;28;874;-70
2022/04/13 00:55:55;;;;;;;;;;;;;;;;;;347336;28;976;-70
2022/04/13 00:56:08;;;;;;;;;;;;;;;;;;347417;28;929;-70
2022/04/13 00:56:23;;;;;;;;;;;;;;;;;;346766;28;1349;-70
2022/04/13 00:56:35;;;;;;;;;;;;;;;;;;347429;28;796;-70
2022/04/13 00:56:47;;;;;;;;;;;;;;;;;;347402;28;845;-70
2022/04/13 00:56:58;;;;;;;;;;;;;;;;;;347382;28;909;-70
2022/04/13 00:57:09;;;;;;;;;;;;;;;;;;347369;28;1079;-70
2022/04/13 00:57:21;;;;;;;;;;;;;;;;;;347389;28;916;-70
2022/04/13 00:57:32;;;;;;;;;;;;;;;;;;347326;28;925;-70
2022/04/13 00:57:42;;;;;;;;;;;;;;;;;;347362;28;988;-70
2022/04/13 00:57:54;;;;;;;;;;;;;;;;;;347437;28;913;-70
2022/04/13 00:58:05;;;;;;;;;;;;;;;;;;347397;28;948;-70
2022/04/13 00:58:17;;;;;;;;;;;;;;;;;;347351;28;1016;-70
2022/04/13 00:58:29;;;;;;;;;;;;;;;;;;347429;28;945;-70
2022/04/13 00:58:39;;;;;;;;;;;;;;;;;;347372;28;967;-70
2022/04/13 00:58:51;;;;;;;;;;;;;;;;;;347405;28;959;-70
2022/04/13 00:59:07;;;;;;;;;;;;;;;;;;347376;28;884;-70
2022/04/13 00:59:18;;;;;;;;;;;;;;;;;;346411;28;1446;-70
2022/04/13 00:59:30;;;;;;;;;;;;;;;;;;347360;28;973;-70
2022/04/13 00:59:41;;;;;;;;;;;;;;;;;;347227;28;1981;-70
2022/04/13 00:59:55;;;;;;;;;;;;;;;;;;347386;28;968;-70
2022/04/13 01:00:06;;;;;;;;;;;;;;;;;;347409;28;858;-70
2022/04/13 01:00:17;;;;;;;;;;;;;;;;;;346852;28;1824;-70
2022/04/13 01:00:28;;;;;;;;;;;;;;;;;;346037;28;1016;-70
2022/04/13 01:00:48;;;;;;;;;;;;;;;;;;346085;28;1073;-70
2022/04/13 01:01:00;;;;;;;;;;;;;;;;;;346012;28;957;-70
2022/04/13 01:01:10;;;;;;;;;;;;;;;;;;345927;28;1266;-70
2022/04/13 01:01:22;;;;;;;;;;;;;;;;;;347172;28;1419;-70
2022/04/13 01:01:34;;;;;;;;;;;;;;;;;;347365;28;924;-70
2022/04/13 01:01:48;;;;;;;;;;;;;;;;;;347335;28;806;-70
2022/04/13 01:01:58;;;;;;;;;;;;;;;;;;347366;28;903;-71
2022/04/13 01:02:09;;;;;;;;;;;;;;;;;;347277;28;952;-70
2022/04/13 01:02:19;;;;;;;;;;;;;;;;;;346789;28;1753;-70
2022/04/13 01:02:30;;;;;;;;;;;;;;;;;;345990;28;980;-70
2022/04/13 01:02:42;;;;;;;;;;;;;;;;;;346062;28;846;-70
2022/04/13 01:02:52;;;;;;;;;;;;;;;;;;345866;28;1303;-70
2022/04/13 01:03:03;;;;;;;;;;;;;;;;;;346016;28;937;-70
2022/04/13 01:03:15;;;;;;;;;;;;;;;;;;346007;28;1028;-70
2022/04/13 01:03:27;;;;;;;;;;;;;;;;;;345957;28;1337;-70
2022/04/13 01:03:37;;;;;;;;;;;;;;;;;;346397;28;1440;-70
2022/04/13 01:03:49;;;;;;;;;;;;;;;;;;347276;28;866;-70
2022/04/13 01:04:00;;;;;;;;;;;;;;;;;;346851;28;1670;-70
2022/04/13 01:04:11;;;;;;;;;;;;;;;;;;347309;28;1016;-70
2022/04/13 01:04:21;;;;;;;;;;;;;;;;;;347393;28;901;-70
2022/04/13 01:04:33;;;;;;;;;;;;;;;;;;347392;28;897;-70
2022/04/13 01:04:44;;;;;;;;;;;;;;;;;;347344;28;937;-70
2022/04/13 01:04:57;;;;;;;;;;;;;;;;;;347354;28;1091;-70
2022/04/13 01:05:07;;;;;;;;;;;;;;;;;;347407;28;913;-70
2022/04/13 01:05:18;;;;;;;;;;;;;;;;;;347362;28;964;-70
2022/04/13 01:05:29;;;;;;;;;;;;;;;;;;346256;28;1274;-70
2022/04/13 01:05:40;;;;;;;;;;;;;;;;;;347226;28;857;-70
2022/04/13 01:05:51;;;;;;;;;;;;;;;;;;346556;28;1625;-70
2022/04/13 01:06:02;;;;;;;;;;;;;;;;;;347306;28;845;-70
2022/04/13 01:06:15;;;;;;;;;;;;;;;;;;347409;28;988;-70
2022/04/13 01:06:27;;;;;;;;;;;;;;;;;;347355;28;886;-70
2022/04/13 01:06:37;;;;;;;;;;;;;;;;;;347382;28;929;-70
2022/04/13 01:06:47;;;;;;;;;;;;;;;;;;347347;28;952;-70
2022/04/13 01:06:58;;;;;;;;;;;;;;;;;;347359;28;857;-71
2022/04/13 01:07:09;;;;;;;;;;;;;;;;;;347373;28;921;-70
2022/04/13 01:07:21;;;;;;;;;;;;;;;;;;347405;28;992;-70
2022/04/13 01:07:33;;;;;;;;;;;;;;;;;;347300;28;1028;-70
2022/04/13 01:07:44;;;;;;;;;;;;;;;;;;347392;28;921;-70
2022/04/13 01:07:54;;;;;;;;;;;;;;;;;;347376;28;835;-70
2022/04/13 01:08:05;;;;;;;;;;;;;;;;;;347304;28;925;-70
2022/04/13 01:08:17;;;;;;;;;;;;;;;;;;347417;28;861;-70
2022/04/13 01:08:29;;;;;;;;;;;;;;;;;;347395;28;878;-70
2022/04/13 01:08:40;;;;;;;;;;;;;;;;;;347270;28;1041;-70
2022/04/13 01:08:50;;;;;;;;;;;;;;;;;;347349;28;829;-70
2022/04/13 01:09:01;;;;;;;;;;;;;;;;;;347338;28;877;-70
2022/04/13 01:09:13;;;;;;;;;;;;;;;;;;346656;28;1348;-70
2022/04/13 01:09:25;;;;;;;;;;;;;;;;;;347169;28;898;-70
2022/04/13 01:09:36;;;;;;;;;;;;;;;;;;347367;28;976;-70
2022/04/13 01:09:49;;;;;;;;;;;;;;;;;;347325;28;853;-70
2022/04/13 01:10:00;;;;;;;;;;;;;;;;;;347372;28;790;-70
2022/04/13 01:10:11;;;;;;;;;;;;;;;;;;347371;28;913;-70
2022/04/13 01:10:22;;;;;;;;;;;;;;;;;;347344;28;941;-70
2022/04/13 01:10:32;;;;;;;;;;;;;;;;;;347399;28;972;-70
2022/04/13 01:10:43;;;;;;;;;;;;;;;;;;347350;28;949;-70
2022/04/13 01:10:54;;;;;;;;;;;;;;;;;;347374;28;890;-70
2022/04/13 01:11:04;;;;;;;;;;;;;;;;;;347385;28;921;-70
2022/04/13 01:11:15;;;;;;;;;;;;;;;;;;347394;28;811;-71
2022/04/13 01:11:26;;;;;;;;;;;;;;;;;;347426;28;861;-70
2022/04/13 01:11:37;;;;;;;;;;;;;;;;;;347363;28;947;-70
2022/04/13 01:11:47;;;;;;;;;;;;;;;;;;347411;28;834;-70
2022/04/13 01:11:57;;;;;;;;;;;;;;;;;;346437;28;1841;-70
2022/04/13 01:12:08;;;;;;;;;;;;;;;;;;347254;28;835;-70
2022/04/13 01:12:18;;;;;;;;;;;;;;;;;;346110;28;1412;-70
2022/04/13 01:12:28;;;;;;;;;;;;;;;;;;346914;28;1341;-70
2022/04/13 01:12:38;;;;;;;;;;;;;;;;;;347400;28;961;-70
2022/04/13 01:12:49;;;;;;;;;;;;;;;;;;347392;28;944;-70
2022/04/13 01:12:59;;;;;;;;;;;;;;;;;;347309;28;913;-70
2022/04/13 01:13:10;;;;;;;;;;;;;;;;;;347414;28;845;-70
2022/04/13 01:13:20;;;;;;;;;;;;;;;;;;347411;28;782;-70
2022/04/13 01:13:30;;;;;;;;;;;;;;;;;;347397;28;964;-70
2022/04/13 01:13:40;;;;;;;;;;;;;;;;;;347327;28;932;-70
2022/04/13 01:13:54;;;;;;;;;;;;;;;;;;347395;28;858;-70
2022/04/13 01:14:04;;;;;;;;;;;;;;;;;;347355;28;916;-70
2022/04/13 01:14:15;;;;;;;;;;;;;;;;;;346140;28;1341;-70
2022/04/13 01:14:25;;;;;;;;;;;;;;;;;;346663;28;1448;-70
2022/04/13 01:14:35;;;;;;;;;;;;;;;;;;347428;28;1739;-70
2022/04/13 01:14:46;;;;;;;;;;;;;;;;;;347263;28;929;-70
2022/04/13 01:14:56;;;;;;;;;;;;;;;;;;347389;28;921;-70
2022/04/13 01:15:06;;;;;;;;;;;;;;;;;;347363;28;1035;-71
2022/04/13 01:15:17;;;;;;;;;;;;;;;;;;347370;28;913;-70
2022/04/13 01:15:27;;;;;;;;;;;;;;;;;;347386;28;921;-70
2022/04/13 01:15:37;;;;;;;;;;;;;;;;;;347406;28;1657;-70
2022/04/13 01:15:48;;;;;;;;;;;;;;;;;;347374;28;825;-70
2022/04/13 01:15:58;;;;;;;;;;;;;;;;;;347321;28;969;-70
2022/04/13 01:16:09;;;;;;;;;;;;;;;;;;347404;28;1087;-70
2022/04/13 01:16:19;;;;;;;;;;;;;;;;;;345796;28;1447;-70
2022/04/13 01:16:29;;;;;;;;;;;;;;;;;;346548;28;1345;-70
2022/04/13 01:16:40;;;;;;;;;;;;;;;;;;347285;28;807;-70
2022/04/13 01:16:50;;;;;;;;;;;;;;;;;;347394;28;913;-70
2022/04/13 01:17:01;;;;;;;;;;;;;;;;;;347288;28;972;-70
2022/04/13 01:17:11;;;;;;;;;;;;;;;;;;347377;28;867;-70
2022/04/13 01:17:22;;;;;;;;;;;;;;;;;;347341;28;871;-70
2022/04/13 01:17:33;;;;;;;;;;;;;;;;;;347406;28;925;-70